Decoded Metar for SBCG (CAMPO GRANDE in BRAZIL) (IATA:CGR) | Meteo·Mobile Aviation Weather
aviador You're here:

SBCG Decoded Metar

CAMPO GRANDE in BRAZIL
Report Time2018-08-22 01:00:00
UTC Time2018-08-22 01:32:19
Flight Rules vfr VFR
Wind160° at 06 kt
W.Decomp.*RWY 24: 2.6 kt HW 5.4 kt LCW
W.Rank160° ranks 22
Current wind is below 160° avg. (7.1)
Visibility9999 m
Phenomena:N/A
Clouds:N/A
Expected CloudBase > 1,200 ft AGL from Temp-Dew spread
CeilingNone
Temp14°C (ISA +3)
Dew Point11°C (82% RH)
AAT12.2°C
QNH1023 hPa
Density Alt2,024 ft
Elevation1,860 ft
Report Wrong Elevation
Raw Report
METAR SBCG 220100Z 16006KT CAVOK 14/11 Q1023=

Extra information for SBCG:More info

Metar Taf Metar & Taf Last 4 Metars F.Rules Stats Wind Profile Meteogram Temp Stats Airport Information Weather charts Add Link Nearby VenuesMetar ALERT Operation Metar Decoded Social comments